Argenta, Texas
Current Conditions -  °F | °C
As of 4:15 AM on Saturday 22 Nov 2014 (Local Time) from KBEA Reporting Station
Overcast Overcast  
Wind Chill: 69°   Ceiling: 2200
Heat Index: 69°   Visibility: 10mi
Dew Point: 68°   Wind: 14mph
Humidity: 95%   Direction: 130°SE
Pressure: 29.98"   Gusts: NA
Location:  28.0654°N, 97.7489°W
Report Text: KBEA 221015Z AUTO 13012KT 10SM SCT017 BKN022 OVC095 21/20 A2998 RMK AO2 LTG DSNT N T02080200
Loading
Personal Weather Stations






























Interactive Weather Map New forecast layout! Learn more

10-Day Weather Forecast

Advertisements
Track Severe Weather on mobile